createdAt,value
2023-04-27T00:02:06.732Z,87.52
2023-04-27T00:04:38.258Z,87.86
2023-04-27T00:07:09.841Z,87.88
2023-04-27T00:09:41.153Z,87.91
2023-04-27T00:12:12.438Z,87.99
2023-04-27T00:14:44.844Z,88.54
2023-04-27T00:17:16.294Z,88.26
2023-04-27T00:19:48.429Z,88.28
2023-04-27T00:22:19.788Z,87.94
2023-04-27T00:24:51.056Z,88.12
2023-04-27T00:27:22.352Z,88.22
2023-04-27T00:29:53.631Z,88.37
2023-04-27T00:32:25.153Z,88.45
2023-04-27T00:34:56.425Z,88.30
2023-04-27T00:37:27.715Z,88.54
2023-04-27T00:39:58.984Z,88.25
2023-04-27T00:42:30.441Z,88.12
2023-04-27T00:45:01.945Z,88.54
2023-04-27T00:47:33.380Z,88.46
2023-04-27T00:50:08.452Z,88.90
2023-04-27T00:52:39.878Z,88.61
2023-04-27T00:55:11.679Z,88.65
2023-04-27T00:57:42.955Z,88.71
2023-04-27T01:00:14.481Z,88.25
2023-04-27T01:02:46.187Z,88.28
2023-04-27T01:05:18.050Z,88.47
2023-04-27T01:23:17.451Z,88.64
2023-04-27T01:25:49.053Z,89.09
2023-04-27T01:28:20.348Z,89.57
2023-04-27T01:30:51.828Z,89.15
2023-04-27T01:33:23.178Z,89.40
2023-04-27T01:35:55.029Z,89.29
2023-04-27T01:38:26.421Z,88.92
2023-04-27T01:41:01.894Z,89.34
2023-04-27T01:43:33.245Z,89.16
2023-04-27T01:46:11.569Z,88.92
2023-04-27T01:48:43.237Z,89.21
2023-04-27T01:51:15.086Z,88.93
2023-04-27T01:53:46.391Z,89.74
2023-04-27T01:56:17.659Z,89.57
2023-04-27T01:58:48.930Z,89.69
2023-04-27T02:01:20.804Z,89.28
2023-04-27T02:03:52.227Z,89.86
2023-04-27T02:06:23.662Z,89.67
2023-04-27T02:08:54.919Z,89.85
2023-04-27T02:11:27.524Z,89.15
2023-04-27T02:13:58.906Z,89.27
2023-04-27T02:16:30.632Z,89.31
2023-04-27T02:19:03.001Z,89.40
2023-04-27T02:21:34.327Z,89.24
2023-04-27T02:24:05.956Z,89.60
2023-04-27T02:26:37.247Z,90.10
2023-04-27T02:29:08.555Z,89.59
2023-04-27T02:31:40.794Z,90.05
2023-04-27T02:34:12.272Z,89.75
2023-04-27T02:36:43.526Z,90.05
2023-04-27T02:39:15.053Z,89.71
2023-04-27T02:41:46.644Z,89.97
2023-04-27T02:44:17.928Z,90.36
2023-04-27T02:46:50.626Z,89.68
2023-04-27T02:49:21.996Z,90.26
2023-04-27T02:51:53.263Z,90.64
2023-04-27T02:54:25.363Z,90.46
2023-04-27T02:56:56.647Z,90.47
2023-04-27T02:59:27.948Z,90.68
2023-04-27T03:01:59.332Z,89.92
2023-04-27T03:04:30.603Z,90.83
2023-04-27T03:07:03.487Z,89.72
2023-04-27T03:09:34.780Z,90.39
2023-04-27T03:12:06.161Z,90.98
2023-04-27T03:14:37.539Z,90.74
2023-04-27T03:17:08.847Z,90.32
2023-04-27T03:19:40.215Z,90.82
2023-04-27T03:22:11.498Z,90.54
2023-04-27T03:24:43.035Z,90.74
2023-04-27T03:27:14.372Z,90.82
2023-04-27T03:29:46.191Z,90.88
2023-04-27T03:32:17.454Z,90.97
2023-04-27T03:34:48.828Z,90.51
2023-04-27T03:37:20.114Z,90.97
2023-04-27T03:39:52.724Z,90.98
2023-04-27T03:42:24.084Z,90.12
2023-04-27T03:44:55.409Z,90.34
2023-04-27T03:47:26.707Z,90.97
2023-04-27T03:49:58.492Z,90.96
2023-04-27T03:52:29.815Z,89.82
2023-04-27T03:55:01.063Z,90.82
2023-04-27T03:57:32.334Z,90.53
2023-04-27T04:00:07.739Z,90.63
2023-04-27T04:02:39.345Z,90.90
2023-04-27T04:05:12.079Z,90.87
2023-04-27T04:07:43.739Z,90.92
2023-04-27T04:10:15.187Z,90.26
2023-04-27T04:12:46.512Z,91.21
2023-04-27T04:15:18.729Z,91.13
2023-04-27T04:17:50.109Z,90.45
2023-04-27T04:20:22.260Z,90.54
2023-04-27T04:22:53.516Z,91.11
2023-04-27T04:25:26.114Z,90.99
2023-04-27T04:27:57.950Z,91.20
2023-04-27T04:30:29.346Z,90.83
2023-04-27T04:33:00.642Z,90.45
2023-04-27T04:35:33.028Z,91.15
2023-04-27T04:38:04.386Z,90.38
2023-04-27T04:40:36.118Z,91.06
2023-04-27T04:43:07.656Z,90.89
2023-04-27T04:45:38.968Z,90.57
2023-04-27T04:48:10.321Z,91.01
2023-04-27T04:50:42.088Z,91.03
2023-04-27T04:53:13.410Z,90.66
2023-04-27T04:55:44.684Z,91.09
2023-04-27T04:58:16.164Z,91.15
2023-04-27T05:00:47.403Z,91.05
2023-04-27T05:03:18.845Z,91.11
2023-04-27T05:05:50.316Z,91.22
2023-04-27T05:08:21.586Z,91.34
2023-04-27T05:10:53.755Z,90.97
2023-04-27T05:13:25.033Z,91.33
2023-04-27T05:15:56.480Z,90.89
2023-04-27T05:18:27.828Z,91.29
2023-04-27T05:20:59.114Z,91.66
2023-04-27T05:23:30.546Z,91.18
2023-04-27T05:26:01.866Z,91.34
2023-04-27T05:28:33.268Z,91.99
2023-04-27T05:31:04.545Z,92.06
2023-04-27T05:33:35.955Z,91.91
2023-04-27T05:36:07.490Z,91.37
2023-04-27T05:38:40.318Z,91.87
2023-04-27T05:41:11.823Z,91.26
2023-04-27T05:43:43.097Z,91.73
2023-04-27T05:46:15.197Z,91.62
2023-04-27T05:48:46.586Z,92.04
2023-04-27T05:51:17.850Z,92.33
2023-04-27T05:53:49.294Z,91.76
2023-04-27T05:56:21.301Z,92.25
2023-04-27T05:58:52.929Z,91.01
2023-04-27T06:01:24.210Z,89.96
2023-04-27T06:03:55.961Z,89.85
2023-04-27T06:06:28.246Z,89.48
2023-04-27T06:08:59.785Z,89.02
2023-04-27T06:11:31.040Z,87.92
2023-04-27T06:14:02.319Z,86.18
2023-04-27T06:16:33.655Z,86.09
2023-04-27T06:19:05.003Z,85.59
2023-04-27T06:21:36.330Z,86.39
2023-04-27T06:24:07.676Z,87.24
2023-04-27T06:26:38.998Z,87.20
2023-04-27T06:29:10.335Z,87.59
2023-04-27T06:31:41.664Z,87.32
2023-04-27T06:34:13.016Z,87.83
2023-04-27T06:36:44.301Z,87.68
2023-04-27T06:39:15.974Z,87.96
2023-04-27T06:41:47.490Z,87.24
2023-04-27T06:44:19.005Z,87.58
2023-04-27T06:46:51.113Z,87.96
2023-04-27T06:49:22.390Z,87.61
2023-04-27T06:51:53.654Z,88.06
2023-04-27T06:54:24.926Z,88.19
2023-04-27T06:56:56.479Z,88.08
2023-04-27T06:59:27.883Z,88.78
2023-04-27T07:01:59.249Z,89.00
2023-04-27T07:04:30.729Z,89.17
2023-04-27T07:07:02.028Z,88.72
2023-04-27T07:09:33.557Z,88.88
2023-04-27T07:12:05.156Z,88.20
2023-04-27T07:14:36.434Z,88.64
2023-04-27T07:17:07.921Z,88.40
2023-04-27T07:19:39.210Z,87.32
2023-04-27T07:22:10.547Z,87.57
2023-04-27T07:24:41.853Z,87.10
2023-04-27T07:27:14.942Z,87.02
2023-04-27T07:29:46.251Z,86.88
2023-04-27T07:32:17.979Z,86.10
2023-04-27T07:34:54.185Z,86.01
2023-04-27T07:37:26.628Z,85.77
2023-04-27T07:39:59.808Z,85.94
2023-04-27T07:42:31.165Z,85.09
2023-04-27T07:45:02.431Z,84.98
2023-04-27T07:47:34.063Z,84.29
2023-04-27T07:50:08.746Z,83.53
2023-04-27T07:52:40.226Z,83.96
2023-04-27T07:55:11.694Z,83.92
2023-04-27T07:57:42.977Z,79.61
2023-04-27T08:00:14.457Z,79.14
2023-04-27T08:02:45.976Z,79.71
2023-04-27T08:05:18.187Z,78.81
2023-04-27T08:07:50.204Z,79.67
2023-04-27T08:10:22.111Z,78.98
2023-04-27T08:12:53.462Z,79.61
2023-04-27T08:15:24.782Z,79.51
2023-04-27T08:17:56.213Z,80.14
2023-04-27T08:20:27.571Z,80.23
2023-04-27T08:22:58.926Z,79.62
2023-04-27T08:25:30.226Z,78.42
2023-04-27T08:28:01.521Z,79.01
2023-04-27T08:30:32.839Z,77.98
2023-04-27T08:33:04.415Z,77.61
2023-04-27T08:35:36.005Z,77.12
2023-04-27T08:38:07.527Z,76.10
2023-04-27T08:40:45.011Z,75.45
2023-04-27T08:43:16.906Z,75.98
2023-04-27T08:45:50.284Z,74.95
2023-04-27T08:48:22.073Z,73.48
2023-04-27T08:50:53.858Z,73.73
2023-04-27T08:53:25.302Z,74.93
2023-04-27T08:55:57.736Z,74.93
2023-04-27T08:58:39.219Z,74.31
2023-04-27T09:01:10.751Z,75.22
2023-04-27T09:03:42.399Z,74.17
2023-04-27T09:06:15.123Z,74.04
2023-04-27T09:08:50.955Z,72.71
2023-04-27T09:11:36.387Z,71.63
2023-04-27T09:14:21.581Z,71.84
2023-04-27T09:16:57.979Z,72.97
2023-04-27T09:19:30.726Z,70.86
2023-04-27T09:22:14.706Z,71.12
2023-04-27T09:24:53.319Z,70.72
2023-04-27T09:27:24.701Z,68.97
2023-04-27T09:29:56.107Z,69.65
2023-04-27T09:32:27.442Z,70.03
2023-04-27T09:34:58.737Z,70.55
2023-04-27T09:37:30.669Z,70.52
2023-04-27T09:40:04.241Z,69.99
2023-04-27T09:42:35.931Z,70.40
2023-04-27T09:45:07.864Z,69.80
2023-04-27T09:47:40.416Z,68.96
2023-04-27T09:50:13.951Z,67.77
2023-04-27T09:52:46.159Z,68.76
2023-04-27T09:55:28.035Z,66.91
2023-04-27T09:58:41.053Z,64.97
2023-04-27T10:01:30.353Z,66.70
2023-04-27T10:04:38.740Z,66.25
2023-04-27T10:07:14.534Z,67.80
2023-04-27T10:09:48.138Z,68.17
2023-04-27T10:12:27.417Z,66.82
2023-04-27T10:15:11.032Z,66.83
2023-04-27T10:17:54.823Z,65.36
2023-04-27T10:20:33.087Z,64.33
2023-04-27T10:23:04.629Z,65.27
2023-04-27T10:25:40.869Z,65.69
2023-04-27T10:28:17.786Z,65.28
2023-04-27T10:30:49.584Z,66.11
2023-04-27T10:33:22.926Z,65.99
2023-04-27T10:35:57.085Z,64.69
2023-04-27T10:38:30.831Z,64.02
2023-04-27T10:41:05.283Z,64.05
2023-04-27T10:43:36.559Z,64.30
2023-04-27T10:46:16.786Z,63.30
2023-04-27T10:48:48.103Z,64.32
2023-04-27T10:51:19.368Z,64.57
2023-04-27T10:53:53.872Z,63.01
2023-04-27T10:56:26.571Z,63.53
2023-04-27T10:59:03.501Z,62.89
2023-04-27T11:01:36.043Z,63.78
2023-04-27T11:04:07.324Z,64.22
2023-04-27T11:06:43.976Z,63.62
2023-04-27T11:09:25.693Z,62.28
2023-04-27T11:11:57.090Z,62.63
2023-04-27T11:14:29.596Z,63.29
2023-04-27T11:17:00.896Z,63.25
2023-04-27T11:19:32.300Z,61.72
2023-04-27T11:22:04.817Z,61.57
2023-04-27T11:24:36.207Z,60.06
2023-04-27T11:27:07.492Z,60.46
2023-04-27T11:29:39.525Z,59.72
2023-04-27T11:32:23.769Z,55.99
2023-04-27T11:34:56.621Z,59.93
2023-04-27T11:37:29.654Z,60.87
2023-04-27T11:40:01.431Z,60.44
2023-04-27T11:42:32.795Z,59.71
2023-04-27T11:45:06.051Z,59.32
2023-04-27T11:47:37.950Z,60.53
2023-04-27T11:50:09.665Z,60.45
2023-04-27T11:52:41.124Z,61.49
2023-04-27T11:55:16.001Z,61.49
2023-04-27T11:57:47.694Z,60.97
2023-04-27T12:00:19.608Z,61.00
2023-04-27T12:02:51.092Z,60.64
2023-04-27T12:05:22.847Z,60.21
2023-04-27T12:07:54.187Z,59.49
2023-04-27T12:10:25.491Z,60.19
2023-04-27T12:12:56.877Z,58.90
2023-04-27T12:15:28.177Z,58.72
2023-04-27T12:17:59.703Z,58.79
2023-04-27T12:20:31.036Z,59.16
2023-04-27T12:23:02.352Z,57.87
2023-04-27T12:25:33.744Z,57.27
2023-04-27T12:28:05.016Z,58.54
2023-04-27T12:30:36.496Z,58.67
2023-04-27T12:33:11.005Z,58.51
2023-04-27T12:35:42.923Z,58.73
2023-04-27T12:38:14.363Z,58.43
2023-04-27T12:40:46.032Z,57.89
2023-04-27T12:43:17.305Z,58.55
2023-04-27T12:45:48.712Z,57.43
2023-04-27T12:48:20.105Z,58.72
2023-04-27T12:50:51.520Z,58.86
2023-04-27T12:53:23.931Z,58.98
2023-04-27T12:55:55.522Z,59.25
2023-04-27T12:58:26.882Z,58.33
2023-04-27T13:00:58.397Z,57.51
2023-04-27T13:03:31.043Z,56.60
2023-04-27T13:06:02.554Z,56.19
2023-04-27T13:08:34.899Z,56.51
2023-04-27T13:11:07.618Z,55.78
2023-04-27T13:13:38.912Z,56.75
2023-04-27T13:16:11.643Z,57.18
2023-04-27T13:18:49.287Z,57.18
2023-04-27T13:21:20.963Z,56.55
2023-04-27T13:23:54.764Z,56.02
2023-04-27T13:26:26.205Z,56.58
2023-04-27T13:28:58.053Z,57.00
2023-04-27T13:31:29.361Z,56.87
2023-04-27T13:34:01.234Z,57.09
2023-04-27T13:36:32.504Z,57.31
2023-04-27T13:39:04.881Z,57.13
2023-04-27T13:41:36.286Z,57.07
2023-04-27T13:44:07.564Z,57.67
2023-04-27T13:46:38.851Z,57.68
2023-04-27T13:49:10.879Z,57.49
2023-04-27T13:51:42.185Z,56.87
2023-04-27T13:54:13.771Z,56.71
2023-04-27T13:56:45.569Z,56.00
2023-04-27T13:59:17.178Z,55.53
2023-04-27T14:01:48.694Z,55.35
2023-04-27T14:04:20.114Z,56.07
2023-04-27T14:06:51.604Z,55.10
2023-04-27T14:09:24.141Z,55.26
2023-04-27T14:11:57.184Z,54.34
2023-04-27T14:14:29.239Z,54.69
2023-04-27T14:17:00.740Z,54.61
2023-04-27T14:19:32.524Z,53.71
2023-04-27T14:22:06.203Z,54.12
2023-04-27T14:24:37.540Z,54.38
2023-04-27T14:27:09.030Z,54.49
2023-04-27T14:29:40.314Z,55.46
2023-04-27T14:32:12.725Z,55.53
2023-04-27T14:34:44.351Z,55.87
2023-04-27T14:37:15.761Z,54.83
2023-04-27T14:39:47.315Z,54.77
2023-04-27T14:42:18.584Z,52.19
2023-04-27T14:44:49.909Z,52.70
2023-04-27T14:47:21.267Z,53.00
2023-04-27T14:49:52.621Z,54.44
2023-04-27T14:52:23.911Z,54.41
2023-04-27T14:54:55.469Z,54.13
2023-04-27T14:57:26.863Z,53.70
2023-04-27T14:59:59.010Z,53.94
2023-04-27T15:02:33.150Z,54.02
2023-04-27T15:05:05.850Z,53.46
2023-04-27T15:07:37.425Z,52.44
2023-04-27T15:10:09.254Z,53.06
2023-04-27T15:12:40.686Z,52.50
2023-04-27T15:15:12.924Z,53.48
2023-04-27T15:17:44.200Z,53.21
2023-04-27T15:20:15.661Z,53.52
2023-04-27T15:22:47.092Z,54.11
2023-04-27T15:25:18.575Z,53.50
2023-04-27T15:27:49.840Z,53.29
2023-04-27T15:30:21.161Z,53.40
2023-04-27T15:32:52.573Z,53.56
2023-04-27T15:35:23.914Z,53.37
2023-04-27T15:37:55.348Z,54.17
2023-04-27T15:40:26.649Z,53.72
2023-04-27T15:42:57.913Z,53.99
2023-04-27T15:45:29.674Z,53.52
2023-04-27T15:48:01.316Z,54.21
2023-04-27T15:50:32.858Z,53.90
2023-04-27T15:53:04.141Z,53.72
2023-04-27T15:55:35.433Z,52.96
2023-04-27T15:58:06.740Z,53.85
2023-04-27T16:00:38.333Z,53.18
2023-04-27T16:03:11.336Z,54.72
2023-04-27T16:05:42.915Z,54.16
2023-04-27T16:08:14.181Z,54.23
2023-04-27T16:10:45.463Z,54.11
2023-04-27T16:13:16.821Z,54.43
2023-04-27T16:15:48.120Z,54.23
2023-04-27T16:18:19.457Z,54.40
2023-04-27T16:20:50.788Z,54.73
2023-04-27T16:23:22.763Z,54.71
2023-04-27T16:25:54.089Z,54.01
2023-04-27T16:28:25.511Z,53.99
2023-04-27T16:30:56.842Z,53.87
2023-04-27T16:33:28.247Z,54.66
2023-04-27T16:35:59.508Z,54.80
2023-04-27T16:38:30.944Z,54.61
2023-04-27T16:41:02.371Z,54.85
2023-04-27T16:43:33.868Z,55.07
2023-04-27T16:46:06.202Z,55.19
2023-04-27T16:48:37.580Z,55.00
2023-04-27T16:51:10.581Z,55.34
2023-04-27T16:53:41.971Z,54.92
2023-04-27T16:56:14.060Z,55.37
2023-04-27T16:58:45.318Z,56.00
2023-04-27T17:01:16.595Z,56.01
2023-04-27T17:03:48.110Z,56.01
2023-04-27T17:06:19.507Z,56.38
2023-04-27T17:08:51.708Z,56.65
2023-04-27T17:11:23.595Z,56.90
2023-04-27T17:13:55.016Z,56.81
2023-04-27T17:16:26.994Z,56.67
2023-04-27T17:18:58.520Z,57.39
2023-04-27T17:21:29.798Z,58.20
2023-04-27T17:24:01.149Z,58.88
2023-04-27T17:26:32.706Z,59.19
2023-04-27T17:29:03.988Z,59.86
2023-04-27T17:31:35.292Z,59.98
2023-04-27T17:34:06.743Z,60.49
2023-04-27T17:36:38.097Z,60.77
2023-04-27T17:39:09.369Z,60.89
2023-04-27T17:41:40.895Z,61.06
2023-04-27T17:44:12.694Z,61.39
2023-04-27T17:46:48.637Z,61.92
2023-04-27T17:49:20.334Z,61.88
2023-04-27T17:51:51.674Z,62.54
2023-04-27T17:54:23.021Z,62.69
2023-04-27T17:56:54.389Z,63.01
2023-04-27T17:59:25.922Z,63.49
2023-04-27T18:01:57.561Z,63.74
2023-04-27T18:04:29.076Z,64.22
2023-04-27T18:07:00.609Z,64.86
2023-04-27T18:09:32.962Z,64.41
2023-04-27T18:12:10.590Z,65.30
2023-04-27T18:14:41.872Z,65.44
2023-04-27T18:17:13.157Z,65.32
2023-04-27T18:19:44.467Z,65.80
2023-04-27T18:22:16.000Z,66.40
2023-04-27T18:24:47.735Z,66.44
2023-04-27T18:27:19.048Z,67.30
2023-04-27T18:29:51.887Z,66.57
2023-04-27T18:32:23.210Z,67.13
2023-04-27T18:34:56.332Z,67.51
2023-04-27T18:37:27.742Z,67.14
2023-04-27T18:39:59.008Z,68.02
2023-04-27T18:42:30.354Z,68.17
2023-04-27T18:45:01.819Z,68.08
2023-04-27T18:47:33.134Z,68.07
2023-04-27T18:50:05.149Z,68.67
2023-04-27T18:52:36.646Z,69.11
2023-04-27T18:55:08.916Z,69.30
2023-04-27T18:57:40.171Z,69.39
2023-04-27T19:00:12.925Z,69.25
2023-04-27T19:02:44.314Z,69.88
2023-04-27T19:05:15.974Z,69.75
2023-04-27T19:07:47.305Z,69.85
2023-04-27T19:10:18.726Z,70.32
2023-04-27T19:12:50.031Z,70.89
2023-04-27T19:15:23.667Z,70.45
2023-04-27T19:18:03.034Z,70.84
2023-04-27T19:20:41.934Z,70.74
2023-04-27T19:23:13.574Z,71.30
2023-04-27T19:25:48.075Z,71.59
2023-04-27T19:28:19.849Z,71.72
2023-04-27T19:30:51.323Z,71.91
2023-04-27T19:33:22.671Z,71.55
2023-04-27T19:35:54.240Z,72.08
2023-04-27T19:38:25.634Z,72.07
2023-04-27T19:40:57.043Z,72.65
2023-04-27T19:43:28.990Z,72.71
2023-04-27T19:46:03.622Z,72.24
2023-04-27T19:48:34.967Z,72.97
2023-04-27T19:51:10.303Z,73.10
2023-04-27T19:53:41.633Z,73.49
2023-04-27T19:56:12.894Z,73.14
2023-04-27T19:58:44.169Z,73.46
2023-04-27T20:01:15.529Z,73.87
2023-04-27T20:03:46.957Z,73.46
2023-04-27T20:06:20.060Z,74.18
2023-04-27T20:08:51.423Z,74.11
2023-04-27T20:11:22.735Z,74.44
2023-04-27T20:13:54.122Z,74.54
2023-04-27T20:16:25.715Z,74.31
2023-04-27T20:18:57.102Z,74.58
2023-04-27T20:21:29.231Z,74.85
2023-04-27T20:24:00.524Z,74.69
2023-04-27T20:26:31.925Z,75.00
2023-04-27T20:29:03.197Z,75.06
2023-04-27T20:31:34.625Z,75.19
2023-04-27T20:34:06.140Z,75.00
2023-04-27T20:36:37.457Z,75.19
2023-04-27T20:39:10.284Z,75.59
2023-04-27T20:41:41.933Z,75.51
2023-04-27T20:44:13.660Z,75.90
2023-04-27T20:46:45.122Z,76.17
2023-04-27T20:49:24.700Z,75.65
2023-04-27T20:52:03.195Z,75.82
2023-04-27T20:54:34.566Z,76.17
2023-04-27T20:57:10.797Z,76.45
2023-04-27T20:59:41.995Z,76.33
2023-04-27T21:02:13.270Z,76.46
2023-04-27T21:04:44.743Z,76.73
2023-04-27T21:07:16.109Z,76.66
2023-04-27T21:09:47.426Z,76.90
2023-04-27T21:12:18.793Z,76.83
2023-04-27T21:14:50.278Z,77.07
2023-04-27T21:17:21.556Z,77.28
2023-04-27T21:19:53.047Z,77.13
2023-04-27T21:22:24.352Z,77.41
2023-04-27T21:24:55.649Z,77.64
2023-04-27T21:27:28.503Z,77.71
2023-04-27T21:30:00.051Z,78.05
2023-04-27T21:32:31.353Z,78.12
2023-04-27T21:35:02.814Z,77.92
2023-04-27T21:37:34.755Z,78.16
2023-04-27T21:40:06.880Z,77.78
2023-04-27T21:42:38.133Z,78.17
2023-04-27T21:45:09.965Z,78.01
2023-04-27T21:47:41.334Z,78.39
2023-04-27T21:50:13.125Z,78.32
2023-04-27T21:52:44.496Z,78.96
2023-04-27T21:55:15.850Z,79.12
2023-04-27T21:57:47.100Z,78.83
2023-04-27T22:00:18.922Z,79.40
2023-04-27T22:02:51.113Z,79.33
2023-04-27T22:05:22.637Z,78.75
2023-04-27T22:07:53.893Z,79.10
2023-04-27T22:10:25.348Z,79.48
2023-04-27T22:12:58.261Z,79.10
2023-04-27T22:15:29.703Z,79.45
2023-04-27T22:18:00.999Z,79.32
2023-04-27T22:20:33.273Z,79.82
2023-04-27T22:23:04.544Z,79.51
2023-04-27T22:25:36.403Z,79.39
2023-04-27T22:28:08.223Z,79.74
2023-04-27T22:30:42.506Z,80.32
2023-04-27T22:33:13.948Z,80.23
2023-04-27T22:35:45.404Z,80.57
2023-04-27T22:38:16.782Z,80.54
2023-04-27T22:40:48.050Z,80.67
2023-04-27T22:43:19.314Z,80.38
2023-04-27T22:45:50.939Z,80.25
2023-04-27T22:48:22.198Z,81.09
2023-04-27T22:50:53.600Z,81.08
2023-04-27T22:53:24.878Z,80.69
2023-04-27T22:55:56.303Z,81.23
2023-04-27T22:58:27.599Z,80.79
2023-04-27T23:00:59.007Z,81.05
2023-04-27T23:03:30.448Z,80.96
2023-04-27T23:06:01.995Z,81.27
2023-04-27T23:08:33.322Z,81.51
2023-04-27T23:11:04.587Z,81.67
2023-04-27T23:13:37.936Z,81.30
2023-04-27T23:16:09.933Z,81.19
2023-04-27T23:18:41.773Z,82.48
2023-04-27T23:21:13.108Z,82.10
2023-04-27T23:23:44.360Z,81.33
2023-04-27T23:26:16.280Z,82.07
2023-04-27T23:28:48.102Z,81.59
2023-04-27T23:31:19.363Z,81.65
2023-04-27T23:33:50.685Z,81.62
2023-04-27T23:36:22.000Z,81.52
2023-04-27T23:38:53.334Z,82.26
2023-04-27T23:41:24.593Z,82.71
2023-04-27T23:43:56.006Z,82.09
2023-04-27T23:46:27.289Z,82.33
2023-04-27T23:48:58.599Z,82.24
2023-04-27T23:51:29.884Z,82.53
2023-04-27T23:54:01.140Z,83.01
2023-04-27T23:56:32.406Z,82.33
2023-04-27T23:59:03.680Z,82.34
